createdAt,value
2023-07-20T00:00:19.221Z,2.10
2023-07-20T00:03:16.861Z,1.50
2023-07-20T00:05:46.364Z,1.60
2023-07-20T00:08:13.215Z,1.80
2023-07-20T00:10:43.465Z,1.70
2023-07-20T00:13:11.483Z,1.90
2023-07-20T00:15:38.368Z,1.90
2023-07-20T00:18:08.087Z,1.60
2023-07-20T00:20:34.605Z,1.60
2023-07-20T00:23:01.108Z,1.70
2023-07-20T00:25:27.949Z,2.00
2023-07-20T00:27:56.811Z,3.40
2023-07-20T00:30:23.769Z,3.50
2023-07-20T00:32:50.618Z,3.30
2023-07-20T00:35:17.263Z,2.70
2023-07-20T00:37:44.071Z,2.70
2023-07-20T00:40:10.700Z,2.80
2023-07-20T00:42:39.891Z,3.30
2023-07-20T00:45:07.668Z,3.30
2023-07-20T00:47:34.245Z,3.00
2023-07-20T00:50:01.466Z,2.70
2023-07-20T00:52:32.745Z,2.80
2023-07-20T00:55:01.790Z,2.50
2023-07-20T00:57:31.072Z,2.70
2023-07-20T01:00:00.218Z,2.70
2023-07-20T01:02:27.121Z,2.70
2023-07-20T01:04:54.319Z,3.00
2023-07-20T01:07:31.491Z,3.00
2023-07-20T04:39:38.669Z,3.10
2023-07-20T04:42:09.969Z,3.30
2023-07-20T04:44:36.524Z,2.70
2023-07-20T04:47:06.019Z,3.40
2023-07-20T04:49:39.145Z,3.00
2023-07-20T04:52:06.101Z,3.20
2023-07-20T04:54:35.052Z,3.40
2023-07-20T04:57:11.226Z,3.00
2023-07-20T04:59:39.404Z,3.30
2023-07-20T05:02:06.012Z,2.90
2023-07-20T05:04:38.979Z,3.20
2023-07-20T05:07:08.833Z,3.30
2023-07-20T05:09:36.855Z,3.20
2023-07-20T05:12:06.522Z,3.00
2023-07-20T05:14:33.388Z,3.10
2023-07-20T05:17:00.203Z,3.60
2023-07-20T05:19:27.105Z,3.50
2023-07-20T05:21:53.791Z,3.20
2023-07-20T05:24:22.677Z,3.40
2023-07-20T05:26:51.725Z,3.50
2023-07-20T05:29:18.774Z,3.00
2023-07-20T05:31:50.809Z,3.20
2023-07-20T05:34:17.457Z,3.30
2023-07-20T05:36:49.058Z,3.00
2023-07-20T05:39:18.607Z,3.20
2023-07-20T05:41:45.171Z,3.00
2023-07-20T05:44:14.613Z,3.90
2023-07-20T05:46:55.075Z,3.40
2023-07-20T05:49:24.273Z,4.20
2023-07-20T05:51:50.880Z,3.30
2023-07-20T05:54:17.600Z,3.10
2023-07-20T05:56:47.139Z,3.40
2023-07-20T05:59:13.996Z,3.10
2023-07-20T06:01:44.559Z,2.90
2023-07-20T06:04:11.076Z,2.90
2023-07-20T06:06:40.184Z,2.90
2023-07-20T06:09:10.218Z,3.40
2023-07-20T06:11:39.543Z,3.30
2023-07-20T06:14:06.295Z,3.30
2023-07-20T06:16:33.133Z,3.80
2023-07-20T06:19:03.080Z,3.50
2023-07-20T06:21:29.738Z,3.20
2023-07-20T06:23:56.393Z,3.60
2023-07-20T06:26:23.187Z,3.20
2023-07-20T06:28:50.036Z,3.30
2023-07-20T06:31:17.360Z,3.00
2023-07-20T06:33:46.553Z,3.20
2023-07-20T06:36:15.398Z,3.10
2023-07-20T06:40:32.145Z,3.50
2023-07-20T06:43:59.154Z,3.50
2023-07-20T06:46:26.964Z,3.80
2023-07-20T06:51:23.962Z,3.40
2023-07-20T06:53:53.656Z,3.80
2023-07-20T06:56:22.578Z,3.70
2023-07-20T06:58:51.261Z,3.20
2023-07-20T07:01:18.331Z,3.80
2023-07-20T07:03:44.966Z,3.50
2023-07-20T07:06:16.539Z,4.00
2023-07-20T07:08:45.232Z,3.40
2023-07-20T07:11:14.104Z,3.20
2023-07-20T07:13:40.643Z,4.50
2023-07-20T07:16:10.090Z,3.60
2023-07-20T07:18:36.835Z,3.30
2023-07-20T07:21:03.880Z,3.20
2023-07-20T07:23:30.552Z,3.60
2023-07-20T07:25:57.234Z,3.60
2023-07-20T07:28:23.811Z,3.80
2023-07-20T07:30:50.359Z,3.60
2023-07-20T07:33:19.659Z,3.30
2023-07-20T07:35:46.181Z,3.40
2023-07-20T07:38:24.836Z,3.40
2023-07-20T07:40:59.292Z,4.50
2023-07-20T07:43:25.965Z,3.10
2023-07-20T07:45:55.883Z,3.50
2023-07-20T07:48:22.751Z,3.80
2023-07-20T07:50:51.592Z,3.90
2023-07-20T07:53:20.913Z,3.60
2023-07-20T07:55:51.047Z,3.80
2023-07-20T07:58:19.025Z,2.80
2023-07-20T08:00:45.725Z,3.20
2023-07-20T08:03:14.701Z,3.90
2023-07-20T08:05:43.908Z,3.40
2023-07-20T08:08:10.934Z,3.50
2023-07-20T08:10:40.082Z,3.70
2023-07-20T08:13:09.631Z,3.80
2023-07-20T08:15:38.484Z,3.70
2023-07-20T08:18:05.927Z,4.10
2023-07-20T08:20:36.512Z,3.80
2023-07-20T08:23:05.484Z,3.80
2023-07-20T08:25:32.062Z,3.90
2023-07-20T08:27:58.559Z,3.50
2023-07-20T08:30:39.628Z,3.20
2023-07-20T08:33:06.128Z,3.50
2023-07-20T08:35:38.605Z,3.70
2023-07-20T08:38:05.323Z,4.00
2023-07-20T08:40:32.829Z,3.90
2023-07-20T08:43:05.807Z,4.20
2023-07-20T08:45:35.127Z,4.10
2023-07-20T08:48:05.787Z,3.00
2023-07-20T08:50:33.109Z,3.40
2023-07-20T08:53:03.265Z,3.20
2023-07-20T08:55:30.730Z,3.50
2023-07-20T08:57:59.277Z,3.30
2023-07-20T09:00:30.411Z,3.00
2023-07-20T09:03:03.550Z,2.80
2023-07-20T09:05:30.845Z,2.70
2023-07-20T09:08:00.567Z,2.90
2023-07-20T09:10:27.149Z,2.50
2023-07-20T09:12:54.053Z,2.30
2023-07-20T09:15:21.320Z,2.40
2023-07-20T09:17:50.226Z,2.30
2023-07-20T09:20:21.367Z,1.80
2023-07-20T09:22:53.047Z,2.50
2023-07-20T09:25:23.311Z,2.30
2023-07-20T09:27:53.049Z,2.10
2023-07-20T09:30:19.772Z,2.20
2023-07-20T09:45:57.234Z,2.10
2023-07-20T09:50:56.584Z,2.30
2023-07-20T09:53:25.620Z,1.90
2023-07-20T09:55:54.402Z,2.00
2023-07-20T09:58:22.456Z,1.70
2023-07-20T10:00:55.062Z,1.90
2023-07-20T10:03:29.818Z,1.80
2023-07-20T10:06:03.931Z,1.70
2023-07-20T10:11:06.284Z,1.80
2023-07-20T10:13:38.303Z,1.60
2023-07-20T10:16:11.766Z,1.50
2023-07-20T10:18:49.058Z,1.90
2023-07-20T10:23:50.380Z,1.70
2023-07-20T10:26:17.300Z,1.60
2023-07-20T10:28:44.389Z,1.60
2023-07-20T10:31:13.611Z,1.60
2023-07-20T10:33:40.906Z,1.60
2023-07-20T10:36:07.509Z,1.70
2023-07-20T10:38:42.360Z,1.50
2023-07-20T10:41:28.989Z,1.50
2023-07-20T10:44:05.428Z,1.70
2023-07-20T10:46:46.270Z,1.50
2023-07-20T10:49:16.874Z,1.70
2023-07-20T10:51:56.257Z,1.40
2023-07-20T10:54:22.753Z,1.60
2023-07-20T10:56:52.452Z,1.70
2023-07-20T10:59:21.152Z,1.50
2023-07-20T11:01:51.495Z,1.40
2023-07-20T11:04:21.613Z,1.30
2023-07-20T11:06:56.097Z,1.20
2023-07-20T11:09:26.352Z,1.40
2023-07-20T11:12:12.362Z,1.30
2023-07-20T11:14:55.358Z,1.30
2023-07-20T11:17:32.165Z,1.40
2023-07-20T11:22:33.808Z,1.30
2023-07-20T11:25:00.442Z,2.20
2023-07-20T11:27:28.623Z,2.40
2023-07-20T11:29:55.114Z,2.60
2023-07-20T11:32:25.045Z,2.80
2023-07-20T11:34:54.457Z,2.50
2023-07-20T11:37:21.124Z,2.80
2023-07-20T11:39:55.419Z,2.20
2023-07-20T11:44:52.913Z,2.80
2023-07-20T11:47:22.325Z,2.50
2023-07-20T11:49:54.801Z,2.60
2023-07-20T11:52:29.003Z,2.50
2023-07-20T11:54:59.144Z,2.80
2023-07-20T11:57:28.245Z,3.10
2023-07-20T11:59:59.343Z,2.00
2023-07-20T12:02:29.017Z,2.00
2023-07-20T12:04:59.977Z,1.70
2023-07-20T12:07:28.838Z,1.40
2023-07-20T12:10:09.600Z,1.90
2023-07-20T12:12:44.759Z,1.10
2023-07-20T12:15:21.500Z,1.30
2023-07-20T12:17:56.057Z,1.30
2023-07-20T12:20:30.354Z,1.30
2023-07-20T12:23:02.030Z,1.30
2023-07-20T12:25:48.718Z,1.30
2023-07-20T12:28:18.228Z,1.30
2023-07-20T12:30:52.024Z,1.50
2023-07-20T12:33:19.083Z,1.40
2023-07-20T12:35:51.880Z,1.10
2023-07-20T12:38:20.993Z,1.10
2023-07-20T12:40:48.366Z,1.10
2023-07-20T12:43:15.031Z,1.20
2023-07-20T12:45:44.432Z,0.90
2023-07-20T12:48:13.265Z,1.10
2023-07-20T12:50:40.204Z,0.90
2023-07-20T12:53:08.233Z,1.10
2023-07-20T12:55:40.854Z,1.20
2023-07-20T12:58:08.601Z,0.90
2023-07-20T13:00:35.353Z,1.40
2023-07-20T13:03:09.260Z,1.30
2023-07-20T13:27:32.935Z,0.80
2023-07-20T13:30:10.341Z,1.10
2023-07-20T13:32:41.072Z,1.00
2023-07-20T13:35:09.942Z,1.00
2023-07-20T13:37:38.434Z,0.70
2023-07-20T13:40:07.739Z,1.10
2023-07-20T13:42:39.014Z,0.70
2023-07-20T13:45:07.469Z,0.70
2023-07-20T13:47:39.020Z,0.90
2023-07-20T13:50:07.657Z,0.70
2023-07-20T13:55:07.642Z,0.50
2023-07-20T13:57:35.840Z,0.50
2023-07-20T14:00:05.851Z,0.80
2023-07-20T14:10:22.551Z,0.50
2023-07-20T14:12:50.592Z,0.60
2023-07-20T14:15:27.393Z,0.70
2023-07-20T14:17:58.572Z,0.50
2023-07-20T14:20:26.643Z,0.60
2023-07-20T14:22:54.532Z,0.60
2023-07-20T14:25:29.603Z,0.60
2023-07-20T14:27:57.821Z,0.60
2023-07-20T14:30:30.710Z,0.60
2023-07-20T14:32:58.805Z,0.70
2023-07-20T14:35:27.444Z,0.60
2023-07-20T14:37:55.426Z,0.70
2023-07-20T14:40:25.682Z,0.60
2023-07-20T14:42:56.402Z,0.90
2023-07-20T14:45:24.345Z,0.60
2023-07-20T14:47:55.153Z,0.90
2023-07-20T14:50:23.800Z,3.50
2023-07-20T14:52:56.273Z,1.10
2023-07-20T14:55:27.227Z,1.30
2023-07-20T14:57:57.704Z,0.60
2023-07-20T15:00:26.227Z,0.50
2023-07-20T15:02:57.535Z,0.40
2023-07-20T15:05:28.493Z,0.50
2023-07-20T15:07:56.901Z,0.50
2023-07-20T15:10:27.519Z,0.50
2023-07-20T15:12:55.518Z,0.40
2023-07-20T15:15:23.491Z,0.40
2023-07-20T15:17:51.518Z,0.60
2023-07-20T15:20:21.894Z,0.60
2023-07-20T15:22:50.421Z,0.30
2023-07-20T15:25:18.783Z,0.50
2023-07-20T15:27:50.133Z,0.70
2023-07-20T15:35:25.181Z,0.40
2023-07-20T15:37:55.900Z,0.40
2023-07-20T15:40:26.319Z,0.50
2023-07-20T15:42:56.852Z,0.20
2023-07-20T15:45:29.107Z,0.40
2023-07-20T15:47:56.948Z,0.50
2023-07-20T15:50:25.013Z,0.60
2023-07-20T15:52:58.457Z,0.40
2023-07-20T15:55:29.108Z,0.50
2023-07-20T15:57:57.191Z,0.40
2023-07-20T16:00:25.506Z,0.40
2023-07-20T16:02:54.140Z,0.50
2023-07-20T16:05:22.591Z,0.50
2023-07-20T16:07:55.862Z,0.40
2023-07-20T16:12:57.751Z,0.70
2023-07-20T16:17:57.952Z,0.40
2023-07-20T16:20:26.093Z,0.50
2023-07-20T16:22:55.160Z,0.70
2023-07-20T16:25:25.362Z,0.60
2023-07-20T16:27:54.640Z,0.60
2023-07-20T16:30:22.511Z,0.80
2023-07-20T16:32:51.969Z,0.70
2023-07-20T16:35:47.637Z,1.60
2023-07-20T16:38:14.180Z,0.60
2023-07-20T16:43:13.911Z,0.60
2023-07-20T16:45:41.815Z,0.80
2023-07-20T16:48:12.423Z,0.90
2023-07-20T16:50:43.108Z,0.80
2023-07-20T16:53:11.021Z,0.70
2023-07-20T16:55:42.010Z,0.70
2023-07-20T16:58:12.201Z,0.80
2023-07-20T17:00:41.452Z,0.80
2023-07-20T17:03:09.558Z,0.60
2023-07-20T17:05:38.142Z,0.60
2023-07-20T17:08:08.389Z,0.80
2023-07-20T17:10:39.894Z,0.60
2023-07-20T17:13:11.479Z,0.70
2023-07-20T17:15:42.426Z,0.50
2023-07-20T17:18:10.996Z,0.70
2023-07-20T17:23:10.797Z,0.60
2023-07-20T17:26:43.549Z,0.70
2023-07-20T17:31:02.357Z,0.60
2023-07-20T17:33:30.224Z,0.70
2023-07-20T17:41:01.073Z,0.60
2023-07-20T17:43:32.889Z,0.60
2023-07-20T17:48:34.887Z,0.80
2023-07-20T17:51:05.761Z,0.90
2023-07-20T17:53:36.049Z,0.70
2023-07-20T17:56:04.404Z,0.60
2023-07-20T17:58:34.837Z,0.90
2023-07-20T18:01:05.467Z,0.70
2023-07-20T18:03:33.743Z,0.80
2023-07-20T18:06:10.484Z,0.70
2023-07-20T18:08:38.848Z,0.90
2023-07-20T18:11:10.828Z,0.80
2023-07-20T18:13:39.155Z,1.00
2023-07-20T18:16:07.109Z,0.90
2023-07-20T18:18:35.318Z,0.90
2023-07-20T18:21:08.093Z,1.00
2023-07-20T18:23:38.851Z,0.80
2023-07-20T18:26:09.300Z,0.70
2023-07-20T18:28:37.249Z,1.00
2023-07-20T18:31:06.693Z,0.70
2023-07-20T18:33:34.697Z,0.90
2023-07-20T18:36:02.668Z,0.80
2023-07-20T18:38:30.535Z,1.00
2023-07-20T18:41:03.247Z,0.80
2023-07-20T18:43:31.171Z,1.00
2023-07-20T18:45:59.415Z,1.20
2023-07-20T18:48:32.180Z,0.90
2023-07-20T18:51:00.121Z,1.00
2023-07-20T18:53:28.219Z,0.70
2023-07-20T18:55:59.024Z,1.00
2023-07-20T18:58:27.040Z,1.00
2023-07-20T19:01:00.408Z,1.00
2023-07-20T19:03:31.251Z,1.10
2023-07-20T19:05:59.472Z,0.90
2023-07-20T19:08:31.954Z,1.70
2023-07-20T19:13:44.208Z,1.20
2023-07-20T19:16:14.945Z,1.30
2023-07-20T19:18:43.062Z,1.00
2023-07-20T19:21:11.085Z,1.40
2023-07-20T19:23:41.431Z,1.10
2023-07-20T19:26:12.503Z,1.20
2023-07-20T19:28:43.682Z,1.40
2023-07-20T19:31:12.005Z,1.90
2023-07-20T19:33:41.512Z,2.10
2023-07-20T19:36:09.588Z,1.70
2023-07-20T19:38:37.588Z,1.80
2023-07-20T19:41:06.627Z,2.00
2023-07-20T19:43:37.011Z,1.90
2023-07-20T19:46:07.523Z,1.90
2023-07-20T19:48:35.487Z,1.90
2023-07-20T19:51:04.946Z,1.60
2023-07-20T19:53:33.657Z,1.90
2023-07-20T19:56:02.587Z,1.80
2023-07-20T19:58:35.670Z,1.60
2023-07-20T20:06:07.929Z,2.20
2023-07-20T20:08:38.316Z,2.20
2023-07-20T20:13:37.400Z,2.40
2023-07-20T20:16:05.836Z,2.40
2023-07-20T20:18:34.168Z,5.10
2023-07-20T20:21:02.703Z,3.40
2023-07-20T20:23:30.865Z,2.80
2023-07-20T20:26:00.490Z,2.60
2023-07-20T20:28:31.069Z,2.40
2023-07-20T20:31:01.413Z,2.20
2023-07-20T20:33:36.568Z,2.60
2023-07-20T20:36:08.091Z,2.00
2023-07-20T20:38:38.268Z,2.00
2023-07-20T20:41:09.604Z,2.50
2023-07-20T20:43:37.501Z,2.10
2023-07-20T20:46:09.926Z,2.30
2023-07-20T20:48:46.121Z,2.40
2023-07-20T20:51:16.691Z,2.70
2023-07-20T20:53:44.929Z,2.50
2023-07-20T20:56:15.510Z,3.00
2023-07-20T20:58:43.903Z,3.10
2023-07-20T21:01:14.621Z,2.90
2023-07-20T21:03:42.860Z,2.70
2023-07-20T21:06:15.645Z,2.80
2023-07-20T21:08:43.554Z,2.70
2023-07-20T21:11:11.854Z,3.10
2023-07-20T21:13:39.706Z,2.90
2023-07-20T21:16:07.667Z,2.80
2023-07-20T21:18:40.629Z,2.40
2023-07-20T21:21:11.294Z,2.90
2023-07-20T21:23:41.573Z,3.00
2023-07-20T21:26:09.571Z,2.10
2023-07-20T21:28:39.848Z,2.50
2023-07-20T21:31:10.233Z,2.80
2023-07-20T21:33:42.650Z,2.70
2023-07-20T21:36:10.593Z,2.50
2023-07-20T21:38:41.107Z,2.10
2023-07-20T21:41:11.279Z,2.40
2023-07-20T21:43:39.292Z,2.40
2023-07-20T21:46:12.532Z,2.50
2023-07-20T21:48:41.875Z,2.40
2023-07-20T21:51:10.164Z,2.40
2023-07-20T21:53:42.828Z,2.40
2023-07-20T21:56:13.184Z,2.30
2023-07-20T21:58:41.075Z,2.50
2023-07-20T22:01:37.267Z,2.30
2023-07-20T22:04:02.473Z,2.10
2023-07-20T22:06:30.800Z,2.20
2023-07-20T22:08:58.962Z,2.20
2023-07-20T22:11:29.256Z,2.80
2023-07-20T22:13:59.993Z,2.50
2023-07-20T22:16:28.143Z,2.30
2023-07-20T22:18:58.938Z,2.50
2023-07-20T22:21:28.449Z,2.50
2023-07-20T22:24:03.929Z,2.40
2023-07-20T22:26:31.996Z,2.70
2023-07-20T22:29:02.185Z,3.80
2023-07-20T22:31:30.221Z,3.30
2023-07-20T22:33:58.509Z,2.60
2023-07-20T22:36:27.266Z,3.00
2023-07-20T22:38:57.652Z,2.70
2023-07-20T22:41:28.601Z,2.50
2023-07-20T22:43:56.530Z,2.30
2023-07-20T22:46:26.746Z,3.20
2023-07-20T22:48:56.380Z,2.40
2023-07-20T22:51:24.439Z,3.20
2023-07-20T22:53:53.439Z,2.60
2023-07-20T22:56:23.978Z,2.70
2023-07-20T22:58:52.835Z,3.20
2023-07-20T23:01:26.634Z,2.80
2023-07-20T23:03:54.737Z,2.90
2023-07-20T23:06:23.100Z,2.60
2023-07-20T23:08:53.702Z,2.60
2023-07-20T23:11:24.674Z,2.90
2023-07-20T23:13:52.618Z,2.50
2023-07-20T23:16:20.720Z,2.90
2023-07-20T23:18:50.015Z,3.10
2023-07-20T23:21:17.893Z,2.90
2023-07-20T23:23:52.511Z,2.60
2023-07-20T23:26:20.687Z,2.80
2023-07-20T23:28:50.740Z,3.00
2023-07-20T23:33:54.188Z,2.90
2023-07-20T23:36:22.364Z,3.00
2023-07-20T23:38:50.333Z,3.10
2023-07-20T23:41:20.889Z,3.00
2023-07-20T23:43:50.472Z,3.30
2023-07-20T23:46:24.816Z,2.70
2023-07-20T23:48:54.287Z,2.70
2023-07-20T23:51:22.199Z,2.60
2023-07-20T23:53:52.542Z,3.10
2023-07-20T23:56:23.288Z,2.80
2023-07-20T23:58:54.037Z,2.60
